createdAt,value
2022-08-05T08:35:06.972Z,3.18
2022-08-05T08:37:06.936Z,10.31
2022-08-05T08:45:36.258Z,11.47
2022-08-05T08:46:36.233Z,27.87
2022-08-05T08:48:06.003Z,26.81
2022-08-05T08:49:03.032Z,28.37
2022-08-05T08:50:22.760Z,36.67
2022-08-05T08:51:04.126Z,43.79
2022-08-05T08:52:04.052Z,40.70
2022-08-05T08:52:36.141Z,43.79
2022-08-05T08:53:36.133Z,44.18
2022-08-05T08:54:36.724Z,48.35
2022-08-05T08:56:05.038Z,52.37
2022-08-05T08:56:36.070Z,50.06
2022-08-05T08:57:48.378Z,49.60
2022-08-05T08:58:43.005Z,55.08
2022-08-05T08:59:36.031Z,52.19
2022-08-05T09:00:36.083Z,49.77
2022-08-05T09:01:36.028Z,50.76
2022-08-05T09:02:35.997Z,61.57
2022-08-05T09:03:39.463Z,60.80
2022-08-05T09:04:35.977Z,58.68
2022-08-05T09:05:38.468Z,54.40
2022-08-05T09:06:36.351Z,54.69
2022-08-05T09:07:40.030Z,50.86
2022-08-05T09:08:35.928Z,51.03
2022-08-05T09:09:35.907Z,52.89
2022-08-05T09:10:35.891Z,51.27
2022-08-05T09:11:51.638Z,54.14
2022-08-05T09:12:35.913Z,57.71
2022-08-05T09:14:01.189Z,57.04
2022-08-05T09:14:58.472Z,50.18
2022-08-05T09:15:37.024Z,51.25
2022-08-05T09:16:35.960Z,52.09
2022-08-05T09:17:40.684Z,48.52
2022-08-05T09:18:38.969Z,47.36
2022-08-05T09:19:36.806Z,43.79
2022-08-05T09:20:37.201Z,45.92
2022-08-05T09:22:24.785Z,49.10
2022-08-05T09:22:36.059Z,49.10
2022-08-05T09:23:37.478Z,49.96
2022-08-05T09:24:35.699Z,41.75
2022-08-05T09:26:01.630Z,41.86
2022-08-05T09:26:35.669Z,37.93
2022-08-05T09:28:05.664Z,41.78
2022-08-05T09:28:35.655Z,42.25
2022-08-05T09:29:35.630Z,45.04
2022-08-05T09:30:35.622Z,38.97
2022-08-05T09:32:41.248Z,34.74
2022-08-05T09:32:51.177Z,35.02
2022-08-05T09:33:36.351Z,41.86
2022-08-05T09:34:35.644Z,42.05
2022-08-05T09:35:35.538Z,41.65
2022-08-05T09:36:35.551Z,38.68
2022-08-05T09:38:16.440Z,41.96
2022-08-05T09:38:35.511Z,39.06
2022-08-05T09:39:41.632Z,41.86
2022-08-05T09:40:35.526Z,43.79
2022-08-05T09:41:39.027Z,43.98
2022-08-05T09:42:35.547Z,40.03
2022-08-05T09:43:41.104Z,41.77
2022-08-05T09:44:35.534Z,34.92
2022-08-05T09:46:07.105Z,38.87
2022-08-05T09:46:35.403Z,42.18
2022-08-05T09:56:13.621Z,26.40
2022-08-05T09:57:23.468Z,28.62
2022-08-05T09:58:12.912Z,29.60
2022-08-05T09:59:17.252Z,35.00
2022-08-05T10:00:12.879Z,33.36
2022-08-05T10:01:13.312Z,32.39
2022-08-05T10:02:12.874Z,34.52
2022-08-05T10:03:12.848Z,32.59
2022-08-05T10:08:53.778Z,22.16
2022-08-05T10:09:45.112Z,22.64
2022-08-05T10:10:44.177Z,23.90
2022-08-05T10:11:44.145Z,26.69
2022-08-05T10:16:25.250Z,24.38
2022-08-05T10:17:37.705Z,30.18
2022-08-05T10:18:25.210Z,40.20
2022-08-05T10:19:46.181Z,38.39
2022-08-05T10:20:25.186Z,52.31
2022-08-05T10:21:25.186Z,58.45
2022-08-05T10:22:29.522Z,50.74
2022-08-05T12:06:10.328Z,71.97
2022-08-05T12:07:06.469Z,74.38
2022-08-05T12:08:10.131Z,79.38
2022-08-05T12:09:06.436Z,76.40
2022-08-05T12:10:09.671Z,82.50
2022-08-05T12:11:06.483Z,84.14
2022-08-05T12:12:06.375Z,88.42
2022-08-05T12:13:15.985Z,89.14
2022-08-05T12:14:06.409Z,93.52
2022-08-05T12:15:06.331Z,97.24
2022-08-05T12:16:15.028Z,99.79
2022-08-05T12:18:00.814Z,99.99
2022-08-05T12:18:10.450Z,99.99
2022-08-05T12:19:08.212Z,99.99
2022-08-05T12:20:27.852Z,99.99
2022-08-05T12:21:06.247Z,99.99
2022-08-05T12:22:09.490Z,99.99
2022-08-05T12:23:06.221Z,99.99
2022-08-05T12:24:07.183Z,99.99
2022-08-05T12:25:06.177Z,99.99
2022-08-05T12:26:06.168Z,99.99
2022-08-05T12:27:09.865Z,99.99
2022-08-05T12:28:06.154Z,99.99
2022-08-05T12:29:09.882Z,99.99
2022-08-05T12:30:06.148Z,99.99
2022-08-05T12:31:06.113Z,99.99
2022-08-05T12:32:07.497Z,99.99
2022-08-05T12:33:07.410Z,99.99
2022-08-05T12:34:06.050Z,99.99
2022-08-05T12:35:06.036Z,99.99
2022-08-05T12:36:08.573Z,99.99
2022-08-05T12:37:06.019Z,99.99
2022-08-05T12:38:06.016Z,99.99
2022-08-05T12:39:07.019Z,99.99
2022-08-05T12:40:10.965Z,99.99
2022-08-05T12:41:09.707Z,99.99
2022-08-05T12:42:05.955Z,99.99
2022-08-05T12:43:05.954Z,99.99
2022-08-05T12:44:05.913Z,99.99
2022-08-05T12:45:08.916Z,99.99
2022-08-05T12:46:05.887Z,99.99
2022-08-05T12:47:05.883Z,99.99
2022-08-05T12:48:17.595Z,99.99
2022-08-05T12:49:13.931Z,99.99
2022-08-05T12:50:06.454Z,99.99
2022-08-05T12:51:05.824Z,99.99
2022-08-05T12:52:13.746Z,99.99
2022-08-05T12:53:05.812Z,99.99
2022-08-05T12:54:16.758Z,99.99
2022-08-05T12:55:05.782Z,99.99
2022-08-05T12:56:05.771Z,99.99
2022-08-05T12:57:09.517Z,99.99
2022-08-05T12:58:52.494Z,99.99
2022-08-05T12:59:10.801Z,99.99
2022-08-05T13:01:57.891Z,99.99
2022-08-05T13:02:03.287Z,99.99
2022-08-05T13:02:07.199Z,99.99
2022-08-05T13:03:05.680Z,99.99
2022-08-05T13:04:07.588Z,99.99
2022-08-05T13:05:05.645Z,99.99
2022-08-05T13:06:05.635Z,99.99
2022-08-05T13:07:05.626Z,99.99
2022-08-05T13:08:05.985Z,99.99
2022-08-05T13:09:05.603Z,99.99
2022-08-05T13:10:05.589Z,99.99
2022-08-05T13:11:05.573Z,99.99
2022-08-05T13:12:05.569Z,99.99
2022-08-05T13:13:05.563Z,99.99
2022-08-05T13:14:07.678Z,99.99
2022-08-05T13:15:06.868Z,99.99
2022-08-05T13:16:05.507Z,99.99
2022-08-05T13:17:05.498Z,99.99
2022-08-05T13:18:05.498Z,99.99
2022-08-05T13:19:05.475Z,99.99
2022-08-05T13:20:05.462Z,99.99
2022-08-05T13:21:05.459Z,99.99
2022-08-05T13:22:05.449Z,99.99
2022-08-05T13:23:07.141Z,99.99
2022-08-05T13:24:05.429Z,99.99
2022-08-05T13:25:07.883Z,99.99
2022-08-05T13:26:05.402Z,99.99
2022-08-05T13:27:05.393Z,99.99
2022-08-05T13:28:05.397Z,99.99
2022-08-05T13:29:05.462Z,99.99
2022-08-05T13:30:35.459Z,99.99
2022-08-05T13:31:14.091Z,99.99
2022-08-05T13:32:05.659Z,99.99
2022-08-05T13:33:05.344Z,99.99
2022-08-05T13:34:21.874Z,99.99
2022-08-05T13:35:05.301Z,99.99
2022-08-05T13:36:05.402Z,99.99
2022-08-05T13:37:05.281Z,99.99
2022-08-05T13:38:06.031Z,99.99
2022-08-05T13:39:08.506Z,99.99
2022-08-05T13:40:15.146Z,99.99
2022-08-05T13:41:05.910Z,99.99
2022-08-05T13:42:05.236Z,99.99
2022-08-05T13:43:05.229Z,99.99
2022-08-05T13:44:05.215Z,99.99
2022-08-05T13:45:05.207Z,99.99
2022-08-05T13:46:05.189Z,99.99
2022-08-05T13:47:09.011Z,99.99
2022-08-05T13:48:09.223Z,99.99
2022-08-05T13:49:05.368Z,99.99
2022-08-05T13:50:08.518Z,99.99
2022-08-05T13:51:05.148Z,99.99
2022-08-05T13:52:05.131Z,99.70
2022-08-05T13:53:09.078Z,98.83
2022-08-05T13:54:11.795Z,99.37
2022-08-05T13:55:07.464Z,99.99
2022-08-05T13:56:05.087Z,99.99
2022-08-05T13:57:05.090Z,98.63
2022-08-05T13:58:05.073Z,99.65
2022-08-05T13:59:06.030Z,98.63
2022-08-05T14:00:05.049Z,99.70
2022-08-05T14:01:05.059Z,98.54
2022-08-05T14:02:05.031Z,96.69
2022-08-05T14:03:05.123Z,98.68
2022-08-05T14:04:05.013Z,99.99
2022-08-05T14:05:05.008Z,99.99
2022-08-05T14:06:26.836Z,99.99
2022-08-05T14:07:25.000Z,99.99
2022-08-05T14:08:20.451Z,99.99
2022-08-05T14:09:08.237Z,99.99
2022-08-05T14:10:04.959Z,99.99
2022-08-05T14:11:20.237Z,99.99
2022-08-05T14:13:32.256Z,99.99
2022-08-05T14:14:33.778Z,99.99
2022-08-05T14:16:08.066Z,99.99
2022-08-05T14:16:31.485Z,99.99
2022-08-05T14:17:31.609Z,99.99
2022-08-05T14:18:31.491Z,99.99
2022-08-05T14:19:31.452Z,99.99
2022-08-05T14:20:31.442Z,99.99
2022-08-05T14:22:09.974Z,99.99
2022-08-05T14:22:34.282Z,99.99
2022-08-05T14:23:31.893Z,99.99
2022-08-05T14:24:31.411Z,99.99
2022-08-05T14:25:31.389Z,99.99
2022-08-05T14:26:35.813Z,99.99
2022-08-05T14:27:31.378Z,99.99
2022-08-05T14:28:31.430Z,99.99
2022-08-05T14:29:31.456Z,99.99
2022-08-05T14:30:31.342Z,99.99
2022-08-05T14:32:03.026Z,99.99
2022-08-05T14:32:31.483Z,99.99
2022-08-05T14:33:32.687Z,99.99
2022-08-05T14:34:35.198Z,99.99
2022-08-05T14:35:49.964Z,99.99
2022-08-05T14:36:31.291Z,99.99
2022-08-05T14:37:45.558Z,99.99
2022-08-05T14:38:34.198Z,99.99
2022-08-05T14:39:31.302Z,99.99
2022-08-05T14:40:31.242Z,99.99
2022-08-05T14:41:31.247Z,99.99
2022-08-05T14:42:31.418Z,99.99
2022-08-05T14:44:02.551Z,99.99
2022-08-05T14:44:31.213Z,99.99
2022-08-05T14:45:31.196Z,99.99
2022-08-05T14:46:31.195Z,99.99
2022-08-05T14:48:03.916Z,99.99
2022-08-05T14:52:12.288Z,99.99
2022-08-05T14:53:12.085Z,99.99
2022-08-05T14:54:28.160Z,99.99
2022-08-05T14:55:15.424Z,99.99
2022-08-05T14:56:12.026Z,99.17
2022-08-05T14:57:13.563Z,99.51
2022-08-05T14:58:13.855Z,99.32
2022-08-05T14:59:12.720Z,97.61
2022-08-05T15:00:11.998Z,97.76
2022-08-05T15:01:16.163Z,97.91
2022-08-05T15:02:15.809Z,98.35
2022-08-05T15:03:11.972Z,99.85
2022-08-05T15:04:11.956Z,99.99
2022-08-05T15:38:33.130Z,99.99
2022-08-05T15:40:59.098Z,99.99
2022-08-05T15:41:03.535Z,99.99
2022-08-05T16:44:54.313Z,99.99
2022-08-05T16:46:06.669Z,99.99
2022-08-05T16:46:55.985Z,99.99
